Salt Lake City, Utah
Traffic Map
Current Weather Conditions
Salt Lake City, Utah
Clear
Clear
65°
Feels Like: 65°
Wind Chill: 65° Ceiling: Unl
Heat Index: 65° Visibility: 10mi
Dew Point: 41° Wind: 9mph
Humidity: 42% Direction: 150° (SSE)
Pressure: 30.07in Gusts: 0mph
Raw Report DataKSLC 290753Z 15008KT 10SM CLR 18/05 A3007 RMK AO2 SLP131 T01830050
Traffic Incident Summary
Active as of:
Severity:
Category:
InformationThere was an issue retrieving the traffic information for this location. Please try a different location or try again shortly.
Advertisements
Track Severe Weather on mobile